createdAt,value
2023-02-09T00:00:00.971Z,52.23
2023-02-09T00:00:48.657Z,52.24
2023-02-09T00:01:38.790Z,52.17
2023-02-09T00:02:28.861Z,52.08
2023-02-09T00:03:18.973Z,52.16
2023-02-09T00:04:08.970Z,52.11
2023-02-09T00:04:59.040Z,52.06
2023-02-09T00:05:49.070Z,52.09
2023-02-09T00:06:39.119Z,52.12
2023-02-09T00:07:29.151Z,52.27
2023-02-09T00:08:19.202Z,52.04
2023-02-09T00:09:09.253Z,52.03
2023-02-09T00:09:59.328Z,52.20
2023-02-09T00:10:49.510Z,52.20
2023-02-09T00:11:39.526Z,52.30
2023-02-09T00:12:29.561Z,52.23
2023-02-09T00:13:19.637Z,52.05
2023-02-09T00:14:09.676Z,52.16
2023-02-09T00:14:59.776Z,52.04
2023-02-09T00:15:49.781Z,52.07
2023-02-09T00:16:40.192Z,51.94
2023-02-09T00:17:30.146Z,52.25
2023-02-09T00:18:20.187Z,52.27
2023-02-09T00:19:10.239Z,52.26
2023-02-09T00:20:00.299Z,52.07
2023-02-09T00:20:50.328Z,52.20
2023-02-09T00:21:40.365Z,52.12
2023-02-09T00:22:30.393Z,52.23
2023-02-09T00:23:20.435Z,52.17
2023-02-09T00:24:10.592Z,52.00
2023-02-09T00:25:00.684Z,51.96
2023-02-09T00:25:50.710Z,52.06
2023-02-09T00:26:40.793Z,51.99
2023-02-09T00:27:30.848Z,52.20
2023-02-09T00:28:20.937Z,52.20
2023-02-09T00:29:10.925Z,52.16
2023-02-09T00:30:01.151Z,52.21
2023-02-09T00:30:51.216Z,52.29
2023-02-09T00:31:41.324Z,52.37
2023-02-09T00:32:31.300Z,52.26
2023-02-09T00:33:21.361Z,52.05
2023-02-09T00:34:11.379Z,52.12
2023-02-09T00:35:01.463Z,52.12
2023-02-09T00:35:51.740Z,52.18
2023-02-09T00:36:41.812Z,52.14
2023-02-09T00:37:31.847Z,52.12
2023-02-09T00:38:21.926Z,52.27
2023-02-09T00:39:11.974Z,52.04
2023-02-09T00:40:02.059Z,52.16
2023-02-09T00:40:52.101Z,52.19
2023-02-09T00:41:42.351Z,52.17
2023-02-09T00:42:32.387Z,52.06
2023-02-09T00:43:22.404Z,52.11
2023-02-09T00:44:12.468Z,52.07
2023-02-09T00:45:02.568Z,52.13
2023-02-09T00:45:52.605Z,52.21
2023-02-09T00:46:42.632Z,52.18
2023-02-09T00:47:32.915Z,52.18
2023-02-09T00:48:22.984Z,52.17
2023-02-09T00:49:13.024Z,51.98
2023-02-09T00:50:03.123Z,52.12
2023-02-09T00:50:53.152Z,52.11
2023-02-09T00:51:43.190Z,52.15
2023-02-09T00:52:33.254Z,52.19
2023-02-09T00:53:23.293Z,52.02
2023-02-09T00:54:13.464Z,52.20
2023-02-09T00:55:03.559Z,52.14
2023-02-09T00:55:53.575Z,52.13
2023-02-09T00:56:43.659Z,52.30
2023-02-09T00:57:33.707Z,52.27
2023-02-09T00:58:23.793Z,51.97
2023-02-09T00:59:13.813Z,51.92
2023-02-09T01:00:04.119Z,52.15
2023-02-09T01:00:54.227Z,52.05
2023-02-09T01:01:44.216Z,52.01
2023-02-09T01:02:34.275Z,52.00
2023-02-09T01:03:24.328Z,52.09
2023-02-09T01:04:14.338Z,52.07
2023-02-09T01:05:04.538Z,52.07
2023-02-09T01:05:54.719Z,52.07
2023-02-09T01:06:44.781Z,52.13
2023-02-09T01:07:34.821Z,52.26
2023-02-09T01:08:24.901Z,52.08
2023-02-09T01:09:14.942Z,51.81
2023-02-09T01:10:05.022Z,51.88
2023-02-09T01:10:55.069Z,51.75
2023-02-09T01:11:45.366Z,52.08
2023-02-09T01:12:35.394Z,52.20
2023-02-09T01:13:25.446Z,52.18
2023-02-09T01:14:15.523Z,52.11
2023-02-09T01:15:05.547Z,52.12
2023-02-09T01:15:55.569Z,51.90
2023-02-09T01:16:45.734Z,51.95
2023-02-09T01:17:35.655Z,51.97
2023-02-09T01:18:25.694Z,52.09
2023-02-09T01:19:15.855Z,51.84
2023-02-09T01:20:05.932Z,51.98
2023-02-09T01:20:55.976Z,51.94
2023-02-09T01:21:46.050Z,52.02
2023-02-09T01:22:36.078Z,52.26
2023-02-09T01:23:26.151Z,52.28
2023-02-09T01:24:16.194Z,52.18
2023-02-09T01:25:06.526Z,52.21
2023-02-09T01:25:56.521Z,52.21
2023-02-09T01:26:46.574Z,51.97
2023-02-09T01:27:36.592Z,52.06
2023-02-09T01:28:26.756Z,52.11
2023-02-09T01:29:16.658Z,51.98
2023-02-09T01:30:06.748Z,52.00
2023-02-09T01:30:56.901Z,52.01
2023-02-09T01:31:47.016Z,51.75
2023-02-09T01:32:37.129Z,52.00
2023-02-09T01:33:27.183Z,52.24
2023-02-09T01:34:17.199Z,52.26
2023-02-09T01:35:07.295Z,52.15
2023-02-09T01:35:57.328Z,52.01
2023-02-09T01:36:47.401Z,52.26
2023-02-09T01:37:37.442Z,52.26
2023-02-09T01:38:27.732Z,51.96
2023-02-09T01:39:17.749Z,52.07
2023-02-09T01:40:07.824Z,52.15
2023-02-09T01:40:57.858Z,52.06
2023-02-09T01:41:47.927Z,52.06
2023-02-09T01:42:37.966Z,52.09
2023-02-09T01:43:28.019Z,52.09
2023-02-09T01:44:18.338Z,52.07
2023-02-09T01:45:08.444Z,51.90
2023-02-09T01:45:58.647Z,52.04
2023-02-09T01:46:48.554Z,52.15
2023-02-09T01:47:38.592Z,52.26
2023-02-09T01:48:28.638Z,52.19
2023-02-09T01:49:18.691Z,51.87
2023-02-09T01:50:08.997Z,52.13
2023-02-09T01:50:59.029Z,52.28
2023-02-09T01:51:49.073Z,52.30
2023-02-09T01:52:39.095Z,52.01
2023-02-09T01:53:29.134Z,51.94
2023-02-09T01:54:19.171Z,51.95
2023-02-09T01:55:09.228Z,51.89
2023-02-09T01:55:59.247Z,51.91
2023-02-09T01:56:49.298Z,52.14
2023-02-09T01:57:39.452Z,52.14
2023-02-09T01:58:29.520Z,52.13
2023-02-09T01:59:19.558Z,52.14
2023-02-09T02:00:09.670Z,52.19
2023-02-09T02:01:00.306Z,52.11
2023-02-09T02:01:49.849Z,52.23
2023-02-09T02:02:39.936Z,52.15
2023-02-09T02:03:30.089Z,52.15
2023-02-09T02:04:20.095Z,52.15
2023-02-09T02:05:10.155Z,52.09
2023-02-09T02:06:00.195Z,51.86
2023-02-09T02:06:50.244Z,51.97
2023-02-09T02:07:40.267Z,51.81
2023-02-09T02:08:30.315Z,52.05
2023-02-09T02:09:20.349Z,51.95
2023-02-09T02:10:10.416Z,52.14
2023-02-09T02:11:00.561Z,51.73
2023-02-09T02:11:50.626Z,52.04
2023-02-09T02:12:40.675Z,52.39
2023-02-09T02:13:30.751Z,52.14
2023-02-09T02:14:20.773Z,52.03
2023-02-09T02:15:10.858Z,52.08
2023-02-09T02:16:00.976Z,52.13
2023-02-09T02:16:51.146Z,52.01
2023-02-09T02:17:41.198Z,52.06
2023-02-09T02:18:31.222Z,52.21
2023-02-09T02:19:21.279Z,51.96
2023-02-09T02:20:11.347Z,52.03
2023-02-09T02:21:01.356Z,51.99
2023-02-09T02:21:51.405Z,51.81
2023-02-09T02:22:41.463Z,51.85
2023-02-09T02:23:31.514Z,52.14
2023-02-09T02:24:21.666Z,52.31
2023-02-09T02:25:11.766Z,52.00
2023-02-09T02:26:01.783Z,51.81
2023-02-09T02:26:51.877Z,51.84
2023-02-09T02:27:41.905Z,52.16
2023-02-09T02:28:32.089Z,52.01
2023-02-09T02:29:22.026Z,51.82
2023-02-09T02:30:12.337Z,52.11
2023-02-09T02:31:02.486Z,52.06
2023-02-09T02:31:52.432Z,52.04
2023-02-09T02:32:42.426Z,51.97
2023-02-09T02:33:32.491Z,51.66
2023-02-09T02:34:22.495Z,51.93
2023-02-09T02:35:12.572Z,51.73
2023-02-09T02:36:02.565Z,52.16
2023-02-09T02:36:52.613Z,52.33
2023-02-09T02:37:42.768Z,51.95
2023-02-09T02:38:32.832Z,52.03
2023-02-09T02:39:22.868Z,52.16
2023-02-09T02:40:12.961Z,52.19
2023-02-09T02:41:03.003Z,51.89
2023-02-09T02:41:53.072Z,52.10
2023-02-09T02:42:43.117Z,52.10
2023-02-09T02:43:33.388Z,52.21
2023-02-09T02:44:23.417Z,52.31
2023-02-09T02:45:13.482Z,52.16
2023-02-09T02:46:03.596Z,52.01
2023-02-09T02:46:53.570Z,51.91
2023-02-09T02:47:43.597Z,52.04
2023-02-09T02:48:33.655Z,51.79
2023-02-09T02:49:23.948Z,51.97
2023-02-09T02:50:14.048Z,52.12
2023-02-09T02:51:04.126Z,51.93
2023-02-09T02:51:54.110Z,51.89
2023-02-09T02:52:44.145Z,52.04
2023-02-09T02:53:34.225Z,52.16
2023-02-09T02:54:24.264Z,51.96
2023-02-09T02:55:14.563Z,52.16
2023-02-09T02:56:04.588Z,52.05
2023-02-09T02:56:54.629Z,52.04
2023-02-09T02:57:44.685Z,52.34
2023-02-09T02:58:34.737Z,52.37
2023-02-09T02:59:24.756Z,51.99
2023-02-09T03:00:14.838Z,51.96
2023-02-09T03:01:04.832Z,52.28
2023-02-09T03:01:54.915Z,52.13
2023-02-09T03:02:45.030Z,51.95
2023-02-09T03:03:35.103Z,52.25
2023-02-09T03:04:25.134Z,52.38
2023-02-09T03:05:15.331Z,51.97
2023-02-09T03:06:05.267Z,52.03
2023-02-09T03:06:55.329Z,51.90
2023-02-09T03:07:45.379Z,52.10
2023-02-09T03:08:35.663Z,51.76
2023-02-09T03:09:25.723Z,52.00
2023-02-09T03:10:15.791Z,52.13
2023-02-09T03:11:05.817Z,52.13
2023-02-09T03:11:55.847Z,52.13
2023-02-09T03:12:45.920Z,52.13
2023-02-09T03:13:35.972Z,51.97
2023-02-09T03:14:25.998Z,51.48
2023-02-09T03:15:16.073Z,51.69
2023-02-09T03:16:06.304Z,51.85
2023-02-09T03:16:56.264Z,52.04
2023-02-09T03:17:46.294Z,52.07
2023-02-09T03:18:36.369Z,51.69
2023-02-09T03:19:26.422Z,52.00
2023-02-09T03:20:16.463Z,51.62
2023-02-09T03:21:06.542Z,51.61
2023-02-09T03:21:56.557Z,51.56
2023-02-09T03:22:46.609Z,51.62
2023-02-09T03:23:36.775Z,51.35
2023-02-09T03:24:26.828Z,51.23
2023-02-09T03:25:16.891Z,51.37
2023-02-09T03:26:06.966Z,51.74
2023-02-09T03:26:56.984Z,51.84
2023-02-09T03:27:47.007Z,51.87
2023-02-09T03:28:37.068Z,51.54
2023-02-09T03:29:27.089Z,51.80
2023-02-09T03:30:17.160Z,51.62
2023-02-09T03:31:07.439Z,51.76
2023-02-09T03:31:57.385Z,51.64
2023-02-09T03:32:47.461Z,51.61
2023-02-09T03:33:37.483Z,51.91
2023-02-09T03:34:27.540Z,52.04
2023-02-09T03:35:17.620Z,51.97
2023-02-09T03:36:07.621Z,51.77
2023-02-09T03:36:57.895Z,51.73
2023-02-09T03:37:47.897Z,51.98
2023-02-09T03:38:37.943Z,51.83
2023-02-09T03:39:28.014Z,52.06
2023-02-09T03:40:18.076Z,51.63
2023-02-09T03:41:08.216Z,51.58
2023-02-09T03:41:58.181Z,51.73
2023-02-09T03:42:48.210Z,51.96
2023-02-09T03:43:38.256Z,52.00
2023-02-09T03:44:28.520Z,51.70
2023-02-09T03:45:18.498Z,51.73
2023-02-09T03:46:08.562Z,51.37
2023-02-09T03:46:58.584Z,51.80
2023-02-09T03:47:48.624Z,52.15
2023-02-09T03:48:38.732Z,52.14
2023-02-09T03:49:28.735Z,52.06
2023-02-09T03:50:19.086Z,51.98
2023-02-09T03:51:09.104Z,52.07
2023-02-09T03:51:59.148Z,51.99
2023-02-09T03:52:49.194Z,51.83
2023-02-09T03:53:39.239Z,51.71
2023-02-09T03:54:29.264Z,51.86
2023-02-09T03:55:19.324Z,51.83
2023-02-09T03:56:09.413Z,51.81
2023-02-09T03:56:59.411Z,52.05
2023-02-09T03:57:49.573Z,51.93
2023-02-09T03:58:39.616Z,51.90
2023-02-09T03:59:29.663Z,51.98
2023-02-09T04:00:19.762Z,51.88
2023-02-09T04:01:09.891Z,51.62
2023-02-09T04:01:59.840Z,51.99
2023-02-09T04:02:49.960Z,51.78
2023-02-09T04:03:40.223Z,51.85
2023-02-09T04:04:30.280Z,51.83
2023-02-09T04:05:20.340Z,51.91
2023-02-09T04:06:10.357Z,52.13
2023-02-09T04:07:00.431Z,51.73
2023-02-09T04:07:50.423Z,51.65
2023-02-09T04:08:40.492Z,51.80
2023-02-09T04:09:30.495Z,51.77
2023-02-09T04:10:20.554Z,51.84
2023-02-09T04:11:10.722Z,51.57
2023-02-09T04:12:00.781Z,51.36
2023-02-09T04:12:50.811Z,51.41
2023-02-09T04:13:40.892Z,51.94
2023-02-09T04:14:30.931Z,52.10
2023-02-09T04:15:21.028Z,51.59
2023-02-09T04:16:11.144Z,51.63
2023-02-09T04:17:01.103Z,51.87
2023-02-09T04:17:51.129Z,51.80
2023-02-09T04:18:41.311Z,51.94
2023-02-09T04:19:31.365Z,51.96
2023-02-09T04:20:21.438Z,52.00
2023-02-09T04:21:11.460Z,51.77
2023-02-09T04:22:01.546Z,51.93
2023-02-09T04:22:51.567Z,51.68
2023-02-09T04:23:41.609Z,51.61
2023-02-09T04:24:31.937Z,51.79
2023-02-09T04:25:21.955Z,51.93
2023-02-09T04:26:11.994Z,51.92
2023-02-09T04:27:02.093Z,51.74
2023-02-09T04:27:52.118Z,51.78
2023-02-09T04:28:42.155Z,51.60
2023-02-09T04:29:32.192Z,51.70
2023-02-09T04:30:22.563Z,51.64
2023-02-09T04:31:12.733Z,51.94
2023-02-09T04:32:02.717Z,51.92
2023-02-09T04:32:52.653Z,51.67
2023-02-09T04:33:42.704Z,51.86
2023-02-09T04:34:32.734Z,51.71
2023-02-09T04:35:22.799Z,51.74
2023-02-09T04:36:12.823Z,51.70
2023-02-09T04:37:02.873Z,51.78
2023-02-09T04:37:53.038Z,51.57
2023-02-09T04:38:43.117Z,51.68
2023-02-09T04:39:33.159Z,51.66
2023-02-09T04:40:23.240Z,51.32
2023-02-09T04:41:13.264Z,51.83
2023-02-09T04:42:03.292Z,51.98
2023-02-09T04:42:53.341Z,52.07
2023-02-09T04:43:43.385Z,51.93
2023-02-09T04:44:33.426Z,51.75
2023-02-09T04:45:23.624Z,51.78
2023-02-09T04:46:13.750Z,51.62
2023-02-09T04:47:03.714Z,51.87
2023-02-09T04:47:53.742Z,51.91
2023-02-09T04:48:43.783Z,51.88
2023-02-09T04:49:33.838Z,51.96
2023-02-09T04:50:23.965Z,51.60
2023-02-09T04:51:14.203Z,51.61
2023-02-09T04:52:04.268Z,51.75
2023-02-09T04:52:54.306Z,51.75
2023-02-09T04:53:44.383Z,51.41
2023-02-09T04:54:34.424Z,51.48
2023-02-09T04:55:24.527Z,51.90
2023-02-09T04:56:15.134Z,51.55
2023-02-09T04:57:04.843Z,51.80
2023-02-09T04:57:54.878Z,51.84
2023-02-09T04:58:44.933Z,51.96
2023-02-09T04:59:34.952Z,51.80
2023-02-09T05:00:25.012Z,51.84
2023-02-09T05:01:15.079Z,51.70
2023-02-09T05:02:05.109Z,51.68
2023-02-09T05:02:55.133Z,51.45
2023-02-09T05:03:45.261Z,51.71
2023-02-09T05:04:35.340Z,51.84
2023-02-09T05:05:25.390Z,51.38
2023-02-09T05:06:15.423Z,51.66
2023-02-09T05:07:05.494Z,51.84
2023-02-09T05:07:55.539Z,51.99
2023-02-09T05:08:45.623Z,51.89
2023-02-09T05:09:35.648Z,51.73
2023-02-09T05:10:26.003Z,51.62
2023-02-09T05:11:16.036Z,51.49
2023-02-09T05:12:06.114Z,51.53
2023-02-09T05:12:56.112Z,51.62
2023-02-09T05:13:46.172Z,51.43
2023-02-09T05:14:36.194Z,51.60
2023-02-09T05:15:26.275Z,51.85
2023-02-09T05:16:16.367Z,51.92
2023-02-09T05:17:06.373Z,51.90
2023-02-09T05:17:56.582Z,51.77
2023-02-09T05:18:46.635Z,51.86
2023-02-09T05:19:36.686Z,51.87
2023-02-09T05:20:26.763Z,51.43
2023-02-09T05:21:16.808Z,51.54
2023-02-09T05:22:06.878Z,51.67
2023-02-09T05:22:56.925Z,51.64
2023-02-09T05:23:47.222Z,52.01
2023-02-09T05:24:37.243Z,51.93
2023-02-09T05:25:27.312Z,51.93
2023-02-09T05:26:17.336Z,51.86
2023-02-09T05:27:07.392Z,51.63
2023-02-09T05:27:57.493Z,51.71
2023-02-09T05:28:47.470Z,51.52
2023-02-09T05:29:37.496Z,51.69
2023-02-09T05:30:27.568Z,51.70
2023-02-09T05:31:17.778Z,51.78
2023-02-09T05:32:07.883Z,51.84
2023-02-09T05:32:57.789Z,51.66
2023-02-09T05:33:47.862Z,51.61
2023-02-09T05:34:37.905Z,51.75
2023-02-09T05:35:27.961Z,51.70
2023-02-09T05:36:17.998Z,51.54
2023-02-09T05:37:08.337Z,51.70
2023-02-09T05:37:58.360Z,51.64
2023-02-09T05:38:48.435Z,51.84
2023-02-09T05:39:38.434Z,51.73
2023-02-09T05:40:28.490Z,51.30
2023-02-09T05:41:18.513Z,51.62
2023-02-09T05:42:08.563Z,51.57
2023-02-09T05:42:58.582Z,51.64
2023-02-09T05:43:48.655Z,51.58
2023-02-09T05:44:38.792Z,51.58
2023-02-09T05:45:28.879Z,51.79
2023-02-09T05:46:19.028Z,51.87
2023-02-09T05:47:08.965Z,51.82
2023-02-09T05:47:58.998Z,51.79
2023-02-09T05:48:49.074Z,51.67
2023-02-09T05:49:39.114Z,51.83
2023-02-09T05:50:29.429Z,51.70
2023-02-09T05:51:19.451Z,51.64
2023-02-09T05:52:09.512Z,51.81
2023-02-09T05:52:59.545Z,51.37
2023-02-09T05:53:49.579Z,51.53
2023-02-09T05:54:39.597Z,51.55
2023-02-09T05:55:29.660Z,51.12
2023-02-09T05:56:19.697Z,51.35
2023-02-09T05:57:09.749Z,51.31
2023-02-09T05:57:59.903Z,51.28
2023-02-09T05:58:49.974Z,51.64
2023-02-09T05:59:40.042Z,51.50
2023-02-09T06:00:30.127Z,51.56
2023-02-09T06:01:20.145Z,51.61
2023-02-09T06:02:10.274Z,51.47
2023-02-09T06:03:00.254Z,51.65
2023-02-09T06:03:50.590Z,51.56
2023-02-09T06:04:40.575Z,51.41
2023-02-09T06:05:30.645Z,51.36
2023-02-09T06:06:20.673Z,51.54
2023-02-09T06:07:12.026Z,51.15
2023-02-09T06:08:00.772Z,51.31
2023-02-09T06:08:50.811Z,51.34
2023-02-09T06:09:40.868Z,51.37
2023-02-09T06:10:30.926Z,51.36
2023-02-09T06:11:21.078Z,51.93
2023-02-09T06:12:11.168Z,51.66
2023-02-09T06:13:01.179Z,51.74
2023-02-09T06:13:51.258Z,51.72
2023-02-09T06:14:41.295Z,51.94
2023-02-09T06:15:31.452Z,51.30
2023-02-09T06:16:21.405Z,51.56
2023-02-09T06:17:11.702Z,51.58
2023-02-09T06:18:01.736Z,51.74
2023-02-09T06:18:51.788Z,51.59
2023-02-09T06:19:41.809Z,51.74
2023-02-09T06:20:31.885Z,51.61
2023-02-09T06:21:21.911Z,51.69
2023-02-09T06:22:11.952Z,51.30
2023-02-09T06:23:01.987Z,51.51
2023-02-09T06:23:52.021Z,51.52
2023-02-09T06:24:42.174Z,51.49
2023-02-09T06:25:32.269Z,51.15
2023-02-09T06:26:22.312Z,51.64
2023-02-09T06:27:12.377Z,51.57
2023-02-09T06:28:02.518Z,51.39
2023-02-09T06:28:52.467Z,51.34
2023-02-09T06:29:42.502Z,51.56
2023-02-09T06:30:33.056Z,51.69
2023-02-09T06:31:22.950Z,51.65
2023-02-09T06:32:12.978Z,51.55
2023-02-09T06:33:02.911Z,51.41
2023-02-09T06:33:52.962Z,51.40
2023-02-09T06:34:42.992Z,51.18
2023-02-09T06:35:33.097Z,51.60
2023-02-09T06:36:23.100Z,51.54
2023-02-09T06:37:13.159Z,51.62
2023-02-09T06:38:03.305Z,51.59
2023-02-09T06:38:53.408Z,51.79
2023-02-09T06:39:43.430Z,51.61
2023-02-09T06:40:33.519Z,51.35
2023-02-09T06:41:23.547Z,51.56
2023-02-09T06:42:13.617Z,51.75
2023-02-09T06:43:03.659Z,51.23
2023-02-09T06:43:53.959Z,51.75
2023-02-09T06:44:44.009Z,51.34
2023-02-09T06:45:34.080Z,51.65
2023-02-09T06:46:24.199Z,51.53
2023-02-09T06:47:14.181Z,51.64
2023-02-09T06:48:04.233Z,51.70
2023-02-09T06:48:54.309Z,51.41
2023-02-09T06:49:44.338Z,51.61
2023-02-09T06:50:35.389Z,51.65
2023-02-09T06:51:24.438Z,51.19
2023-02-09T06:52:14.513Z,51.37
2023-02-09T06:53:04.792Z,51.48
2023-02-09T06:53:54.867Z,51.51
2023-02-09T06:54:45.226Z,51.33
2023-02-09T06:55:34.979Z,51.55
2023-02-09T06:56:25.021Z,51.54
2023-02-09T06:57:15.102Z,51.46
2023-02-09T06:58:05.887Z,51.15
2023-02-09T06:58:55.187Z,51.59
2023-02-09T06:59:45.214Z,51.53
2023-02-09T07:00:35.419Z,51.58
2023-02-09T07:01:25.493Z,51.45
2023-02-09T07:02:15.627Z,51.41
2023-02-09T07:03:05.668Z,51.34
2023-02-09T07:03:55.598Z,50.94
2023-02-09T07:04:45.635Z,51.01
2023-02-09T07:05:35.707Z,51.45
2023-02-09T07:06:25.718Z,51.32
2023-02-09T07:07:15.778Z,51.47
2023-02-09T07:08:05.935Z,51.65
2023-02-09T07:08:55.982Z,51.70
2023-02-09T07:09:46.018Z,51.65
2023-02-09T07:10:36.106Z,51.74
2023-02-09T07:11:26.145Z,51.67
2023-02-09T07:12:16.214Z,51.45
2023-02-09T07:13:06.251Z,51.44
2023-02-09T07:13:56.587Z,51.26
2023-02-09T07:14:46.618Z,51.44
2023-02-09T07:15:36.694Z,51.37
2023-02-09T07:16:26.783Z,51.23
2023-02-09T07:17:16.738Z,51.29
2023-02-09T07:18:06.801Z,51.32
2023-02-09T07:18:58.836Z,51.37
2023-02-09T07:19:46.899Z,51.36
2023-02-09T07:20:37.200Z,51.24
2023-02-09T07:21:27.228Z,51.54
2023-02-09T07:22:17.271Z,51.55
2023-02-09T07:23:07.300Z,51.42
2023-02-09T07:23:57.332Z,51.38
2023-02-09T07:24:47.394Z,51.28
2023-02-09T07:25:37.463Z,51.06
2023-02-09T07:26:27.487Z,51.30
2023-02-09T07:27:17.535Z,51.61
2023-02-09T07:28:07.726Z,51.58
2023-02-09T07:28:57.741Z,51.04
2023-02-09T07:29:47.776Z,51.18
2023-02-09T07:30:37.941Z,51.06
2023-02-09T07:31:28.094Z,51.17
2023-02-09T07:32:17.958Z,51.29
2023-02-09T07:33:08.009Z,51.23
2023-02-09T07:33:58.048Z,51.13
2023-02-09T07:34:48.112Z,51.51
2023-02-09T07:35:38.281Z,51.44
2023-02-09T07:36:28.304Z,51.50
2023-02-09T07:37:18.367Z,51.41
2023-02-09T07:38:08.418Z,51.44
2023-02-09T07:38:58.469Z,51.40
2023-02-09T07:39:48.518Z,51.54
2023-02-09T07:40:38.591Z,51.57
2023-02-09T07:41:28.878Z,51.51
2023-02-09T07:42:18.953Z,51.61
2023-02-09T07:43:08.995Z,51.39
2023-02-09T07:43:59.063Z,51.40
2023-02-09T07:44:49.098Z,51.44
2023-02-09T07:45:39.194Z,51.26
2023-02-09T07:46:29.275Z,51.32
2023-02-09T07:47:19.504Z,51.30
2023-02-09T07:48:09.527Z,51.24
2023-02-09T07:49:01.450Z,51.33
2023-02-09T07:49:49.613Z,51.46
2023-02-09T07:50:39.706Z,51.64
2023-02-09T07:51:29.912Z,51.42
2023-02-09T07:52:19.780Z,51.59
2023-02-09T07:53:09.800Z,51.60
2023-02-09T07:53:59.845Z,51.47
2023-02-09T07:54:50.405Z,51.43
2023-02-09T07:55:40.207Z,51.48
2023-02-09T07:56:30.217Z,51.51
2023-02-09T07:57:20.290Z,51.49
2023-02-09T07:58:10.330Z,51.38
2023-02-09T07:59:00.403Z,51.63
2023-02-09T07:59:50.436Z,51.54
2023-02-09T08:00:40.783Z,51.36
2023-02-09T08:01:30.924Z,51.41
2023-02-09T08:02:20.840Z,51.44
2023-02-09T08:03:10.873Z,51.55
2023-02-09T08:04:00.924Z,51.28
2023-02-09T08:04:51.045Z,51.47
2023-02-09T08:05:41.095Z,51.35
2023-02-09T08:06:41.322Z,51.27
2023-02-09T08:07:22.128Z,51.50
2023-02-09T08:08:11.201Z,51.35
2023-02-09T08:09:01.238Z,51.46
2023-02-09T08:09:51.296Z,51.23
2023-02-09T08:10:41.343Z,51.01
2023-02-09T08:11:31.369Z,51.23
2023-02-09T08:12:21.414Z,51.35
2023-02-09T08:13:11.451Z,51.55
2023-02-09T08:14:01.612Z,51.25
2023-02-09T08:14:51.686Z,51.10
2023-02-09T08:15:41.739Z,51.40
2023-02-09T08:16:31.816Z,51.21
2023-02-09T08:17:21.827Z,51.13
2023-02-09T08:18:13.088Z,51.16
2023-02-09T08:19:01.979Z,51.42
2023-02-09T08:19:52.071Z,51.21
2023-02-09T08:20:42.118Z,51.43
2023-02-09T08:21:32.178Z,51.32
2023-02-09T08:22:22.203Z,51.32
2023-02-09T08:23:12.236Z,51.01
2023-02-09T08:24:02.270Z,51.25
2023-02-09T08:24:52.373Z,51.45
2023-02-09T08:25:42.390Z,51.11
2023-02-09T08:26:32.587Z,51.32
2023-02-09T08:27:22.596Z,51.39
2023-02-09T08:28:12.767Z,51.20
2023-02-09T08:29:02.687Z,51.14
2023-02-09T08:29:52.733Z,51.38
2023-02-09T08:30:42.802Z,51.33
2023-02-09T08:31:32.966Z,51.23
2023-02-09T08:32:22.888Z,51.39
2023-02-09T08:33:12.940Z,51.21
2023-02-09T08:34:03.098Z,51.37
2023-02-09T08:34:53.160Z,51.43
2023-02-09T08:35:43.204Z,50.97
2023-02-09T08:36:33.218Z,51.13
2023-02-09T08:37:23.281Z,51.10
2023-02-09T08:38:13.338Z,51.08
2023-02-09T08:39:03.379Z,50.68
2023-02-09T08:39:53.444Z,50.94
2023-02-09T08:40:43.511Z,51.33
2023-02-09T08:41:33.672Z,51.12
2023-02-09T08:42:23.698Z,51.23
2023-02-09T08:43:13.752Z,50.96
2023-02-09T08:44:03.777Z,51.05
2023-02-09T08:44:53.832Z,51.06
2023-02-09T08:45:44.580Z,51.27
2023-02-09T08:46:34.013Z,50.91
2023-02-09T08:47:23.968Z,50.92
2023-02-09T08:48:14.006Z,50.80
2023-02-09T08:49:04.037Z,51.03
2023-02-09T08:49:54.090Z,51.08
2023-02-09T08:50:44.170Z,50.99
2023-02-09T08:51:34.286Z,51.21
2023-02-09T08:52:24.362Z,51.50
2023-02-09T08:53:14.425Z,51.65
2023-02-09T08:54:04.438Z,51.67
2023-02-09T08:54:54.494Z,51.35
2023-02-09T08:55:44.969Z,51.35
2023-02-09T08:56:34.572Z,51.27
2023-02-09T08:57:38.139Z,51.24
2023-02-09T08:58:15.671Z,51.34
2023-02-09T08:59:04.733Z,50.91
2023-02-09T08:59:54.786Z,51.21
2023-02-09T09:00:44.880Z,50.93
2023-02-09T09:01:34.913Z,51.49
2023-02-09T09:02:24.945Z,51.28
2023-02-09T09:03:14.984Z,50.94
2023-02-09T09:04:05.076Z,50.99
2023-02-09T09:04:55.191Z,51.21
2023-02-09T09:05:45.643Z,51.35
2023-02-09T09:06:35.307Z,51.51
2023-02-09T09:07:25.369Z,51.56
2023-02-09T09:08:15.416Z,51.01
2023-02-09T09:09:05.468Z,50.97
2023-02-09T09:09:55.484Z,51.11
2023-02-09T09:10:45.824Z,50.91
2023-02-09T09:11:35.859Z,51.14
2023-02-09T09:12:25.897Z,51.08
2023-02-09T09:13:15.918Z,51.06
2023-02-09T09:14:05.971Z,51.05
2023-02-09T09:14:55.990Z,51.26
2023-02-09T09:15:46.603Z,51.21
2023-02-09T09:16:36.155Z,51.05
2023-02-09T09:17:26.171Z,51.20
2023-02-09T09:18:16.392Z,51.40
2023-02-09T09:19:06.460Z,51.30
2023-02-09T09:19:56.495Z,51.16
2023-02-09T09:20:46.590Z,50.99
2023-02-09T09:21:36.628Z,50.93
2023-02-09T09:22:26.697Z,51.27
2023-02-09T09:23:16.744Z,51.49
2023-02-09T09:24:06.998Z,51.24
2023-02-09T09:24:57.043Z,51.37
2023-02-09T09:25:47.416Z,51.28
2023-02-09T09:26:37.090Z,51.14
2023-02-09T09:27:27.209Z,51.24
2023-02-09T09:28:17.343Z,51.16
2023-02-09T09:29:07.226Z,50.64
2023-02-09T09:29:57.284Z,50.88
2023-02-09T09:30:47.366Z,51.02
2023-02-09T09:31:37.658Z,50.97
2023-02-09T09:32:27.753Z,50.70
2023-02-09T09:33:17.646Z,50.60
2023-02-09T09:34:07.666Z,50.83
2023-02-09T09:34:57.701Z,51.07
2023-02-09T09:35:48.084Z,50.72
2023-02-09T09:36:37.809Z,51.08
2023-02-09T09:37:27.854Z,51.18
2023-02-09T09:38:17.888Z,50.94
2023-02-09T09:39:08.157Z,50.87
2023-02-09T09:39:58.207Z,50.65
2023-02-09T09:40:48.284Z,51.05
2023-02-09T09:41:38.300Z,50.68
2023-02-09T09:42:28.363Z,50.88
2023-02-09T09:43:18.393Z,50.72
2023-02-09T09:44:08.439Z,50.63
2023-02-09T09:44:58.750Z,50.63
2023-02-09T09:45:49.284Z,51.19
2023-02-09T09:46:38.975Z,51.39
2023-02-09T09:47:28.929Z,51.52
2023-02-09T09:48:18.969Z,51.32
2023-02-09T09:49:09.035Z,50.78
2023-02-09T09:49:59.067Z,50.40
2023-02-09T09:50:49.419Z,50.91
2023-02-09T09:51:39.460Z,50.77
2023-02-09T09:52:29.489Z,50.84
2023-02-09T09:53:19.536Z,50.97
2023-02-09T09:54:09.580Z,50.95
2023-02-09T09:54:59.623Z,50.72
2023-02-09T09:55:50.030Z,50.82
2023-02-09T09:56:39.997Z,51.04
2023-02-09T09:57:30.018Z,51.33
2023-02-09T09:58:20.050Z,51.37
2023-02-09T09:59:10.126Z,51.23
2023-02-09T10:00:00.161Z,51.33
2023-02-09T10:00:50.369Z,51.33
2023-02-09T10:01:40.343Z,51.25
2023-02-09T10:02:30.610Z,51.12
2023-02-09T10:03:20.632Z,51.19
2023-02-09T10:04:10.702Z,51.29
2023-02-09T10:05:00.737Z,51.06
2023-02-09T10:05:50.793Z,51.19
2023-02-09T10:06:40.815Z,51.28
2023-02-09T10:07:30.880Z,51.18
2023-02-09T10:08:20.901Z,51.22
2023-02-09T10:09:10.951Z,51.17
2023-02-09T10:10:01.098Z,50.87
2023-02-09T10:10:51.184Z,50.91
2023-02-09T10:11:41.229Z,51.09
2023-02-09T10:12:31.349Z,50.98
2023-02-09T10:13:21.344Z,50.89
2023-02-09T10:14:11.421Z,50.97
2023-02-09T10:15:01.465Z,50.79
2023-02-09T10:15:51.731Z,50.82
2023-02-09T10:16:41.758Z,50.72
2023-02-09T10:17:31.822Z,50.82
2023-02-09T10:18:21.855Z,50.71
2023-02-09T10:19:11.903Z,50.85
2023-02-09T10:20:01.960Z,50.50
2023-02-09T10:20:52.059Z,50.46
2023-02-09T10:21:42.266Z,50.34
2023-02-09T10:22:32.329Z,50.45
2023-02-09T10:23:22.371Z,50.71
2023-02-09T10:24:12.427Z,50.68
2023-02-09T10:25:02.485Z,50.47
2023-02-09T10:25:52.557Z,50.84
2023-02-09T10:26:42.597Z,50.98
2023-02-09T10:27:32.830Z,50.73
2023-02-09T10:28:23.048Z,50.63
2023-02-09T10:29:12.970Z,50.86
2023-02-09T10:30:02.991Z,50.95
2023-02-09T10:30:53.248Z,50.85
2023-02-09T10:31:43.246Z,50.75
2023-02-09T10:32:33.133Z,50.65
2023-02-09T10:33:23.186Z,51.12
2023-02-09T10:34:13.231Z,51.17
2023-02-09T10:35:03.410Z,51.07
2023-02-09T10:35:53.492Z,50.85
2023-02-09T10:36:43.485Z,50.70
2023-02-09T10:37:33.564Z,50.57
2023-02-09T10:38:23.598Z,50.41
2023-02-09T10:39:13.666Z,50.49
2023-02-09T10:40:03.712Z,50.42
2023-02-09T10:40:53.994Z,50.70
2023-02-09T10:41:44.013Z,50.55
2023-02-09T10:42:34.091Z,50.55
2023-02-09T10:43:24.144Z,50.82
2023-02-09T10:44:14.216Z,51.13